sensor_id;sensor_type;location;lat;lon;timestamp;P1;durP1;ratioP1;P2;durP2;ratioP2
42332;SDS011;27984;51.476;5.702;2023-11-19T00:00:29;13.48;;;10.32;;
42332;SDS011;27984;51.476;5.702;2023-11-19T00:02:56;13.82;;;9.82;;
42332;SDS011;27984;51.476;5.702;2023-11-19T00:05:21;14.63;;;9.55;;
42332;SDS011;27984;51.476;5.702;2023-11-19T00:07:47;16.98;;;9.48;;
42332;SDS011;27984;51.476;5.702;2023-11-19T00:10:14;18.02;;;9.77;;
42332;SDS011;27984;51.476;5.702;2023-11-19T00:12:46;14.75;;;9.07;;
42332;SDS011;27984;51.476;5.702;2023-11-19T00:15:14;13.25;;;8.52;;
42332;SDS011;27984;51.476;5.702;2023-11-19T00:17:41;17.13;;;8.50;;
42332;SDS011;27984;51.476;5.702;2023-11-19T00:20:14;16.27;;;7.75;;
42332;SDS011;27984;51.476;5.702;2023-11-19T00:22:40;11.90;;;6.32;;
42332;SDS011;27984;51.476;5.702;2023-11-19T00:25:07;14.98;;;5.97;;
42332;SDS011;27984;51.476;5.702;2023-11-19T00:27:33;13.18;;;6.32;;
42332;SDS011;27984;51.476;5.702;2023-11-19T00:29:59;10.65;;;6.20;;
42332;SDS011;27984;51.476;5.702;2023-11-19T00:32:25;13.60;;;6.20;;
42332;SDS011;27984;51.476;5.702;2023-11-19T00:34:51;8.60;;;5.18;;
42332;SDS011;27984;51.476;5.702;2023-11-19T00:37:17;10.85;;;5.20;;
42332;SDS011;27984;51.476;5.702;2023-11-19T00:39:43;11.25;;;4.13;;
42332;SDS011;27984;51.476;5.702;2023-11-19T00:42:10;7.40;;;4.28;;
42332;SDS011;27984;51.476;5.702;2023-11-19T00:44:36;12.27;;;4.25;;
42332;SDS011;27984;51.476;5.702;2023-11-19T00:47:02;10.23;;;4.53;;
42332;SDS011;27984;51.476;5.702;2023-11-19T00:49:30;9.63;;;3.97;;
42332;SDS011;27984;51.476;5.702;2023-11-19T00:51:57;10.63;;;4.45;;
42332;SDS011;27984;51.476;5.702;2023-11-19T00:54:24;9.65;;;3.55;;
42332;SDS011;27984;51.476;5.702;2023-11-19T00:56:51;9.70;;;3.85;;
42332;SDS011;27984;51.476;5.702;2023-11-19T00:59:17;8.90;;;3.40;;
42332;SDS011;27984;51.476;5.702;2023-11-19T01:01:43;5.93;;;2.90;;
42332;SDS011;27984;51.476;5.702;2023-11-19T01:04:09;8.25;;;3.80;;
42332;SDS011;27984;51.476;5.702;2023-11-19T01:06:35;11.13;;;3.55;;
42332;SDS011;27984;51.476;5.702;2023-11-19T01:09:01;9.77;;;3.40;;
42332;SDS011;27984;51.476;5.702;2023-11-19T01:11:27;11.50;;;4.07;;
42332;SDS011;27984;51.476;5.702;2023-11-19T01:13:53;11.07;;;3.67;;
42332;SDS011;27984;51.476;5.702;2023-11-19T01:16:19;11.50;;;4.10;;
42332;SDS011;27984;51.476;5.702;2023-11-19T01:18:49;15.82;;;4.38;;
42332;SDS011;27984;51.476;5.702;2023-11-19T01:21:15;14.55;;;3.90;;
42332;SDS011;27984;51.476;5.702;2023-11-19T01:23:41;12.93;;;3.90;;
42332;SDS011;27984;51.476;5.702;2023-11-19T01:26:11;19.45;;;4.00;;
42332;SDS011;27984;51.476;5.702;2023-11-19T01:28:40;14.32;;;4.05;;
42332;SDS011;27984;51.476;5.702;2023-11-19T01:31:09;14.57;;;4.03;;
42332;SDS011;27984;51.476;5.702;2023-11-19T01:33:36;14.52;;;4.03;;
42332;SDS011;27984;51.476;5.702;2023-11-19T01:36:02;15.35;;;4.47;;
42332;SDS011;27984;51.476;5.702;2023-11-19T01:38:29;17.73;;;4.10;;
42332;SDS011;27984;51.476;5.702;2023-11-19T01:40:56;19.88;;;4.40;;
42332;SDS011;27984;51.476;5.702;2023-11-19T01:43:32;17.90;;;4.05;;
42332;SDS011;27984;51.476;5.702;2023-11-19T01:45:59;14.13;;;3.53;;
42332;SDS011;27984;51.476;5.702;2023-11-19T01:48:25;16.75;;;3.97;;
42332;SDS011;27984;51.476;5.702;2023-11-19T01:50:51;17.02;;;3.95;;
42332;SDS011;27984;51.476;5.702;2023-11-19T01:53:17;23.27;;;4.13;;
42332;SDS011;27984;51.476;5.702;2023-11-19T01:55:43;28.17;;;4.15;;
42332;SDS011;27984;51.476;5.702;2023-11-19T01:58:09;22.10;;;4.10;;
42332;SDS011;27984;51.476;5.702;2023-11-19T02:00:37;17.10;;;4.00;;
42332;SDS011;27984;51.476;5.702;2023-11-19T02:03:03;14.10;;;3.83;;
42332;SDS011;27984;51.476;5.702;2023-11-19T02:05:32;23.02;;;3.92;;
42332;SDS011;27984;51.476;5.702;2023-11-19T02:07:58;16.55;;;3.90;;
42332;SDS011;27984;51.476;5.702;2023-11-19T02:10:24;18.55;;;4.18;;
42332;SDS011;27984;51.476;5.702;2023-11-19T02:12:50;13.80;;;3.30;;
42332;SDS011;27984;51.476;5.702;2023-11-19T02:15:16;16.05;;;3.58;;
42332;SDS011;27984;51.476;5.702;2023-11-19T02:17:44;15.40;;;3.35;;
42332;SDS011;27984;51.476;5.702;2023-11-19T02:20:10;15.65;;;3.67;;
42332;SDS011;27984;51.476;5.702;2023-11-19T02:22:40;18.50;;;4.22;;
42332;SDS011;27984;51.476;5.702;2023-11-19T02:25:07;13.27;;;3.75;;
42332;SDS011;27984;51.476;5.702;2023-11-19T02:27:45;15.57;;;4.25;;
42332;SDS011;27984;51.476;5.702;2023-11-19T02:30:12;15.57;;;4.00;;
42332;SDS011;27984;51.476;5.702;2023-11-19T02:32:40;14.23;;;3.72;;
42332;SDS011;27984;51.476;5.702;2023-11-19T02:35:06;18.15;;;3.78;;
42332;SDS011;27984;51.476;5.702;2023-11-19T02:37:36;20.80;;;4.80;;
42332;SDS011;27984;51.476;5.702;2023-11-19T02:40:03;15.98;;;4.13;;
42332;SDS011;27984;51.476;5.702;2023-11-19T02:42:30;15.93;;;3.60;;
42332;SDS011;27984;51.476;5.702;2023-11-19T02:44:56;18.52;;;4.10;;
42332;SDS011;27984;51.476;5.702;2023-11-19T02:47:22;21.52;;;4.63;;
42332;SDS011;27984;51.476;5.702;2023-11-19T02:49:49;16.75;;;3.92;;
42332;SDS011;27984;51.476;5.702;2023-11-19T02:52:15;25.67;;;4.70;;
42332;SDS011;27984;51.476;5.702;2023-11-19T02:54:42;31.02;;;5.32;;
42332;SDS011;27984;51.476;5.702;2023-11-19T02:57:08;29.25;;;4.93;;
42332;SDS011;27984;51.476;5.702;2023-11-19T02:59:38;41.83;;;4.85;;
42332;SDS011;27984;51.476;5.702;2023-11-19T03:02:06;28.92;;;4.53;;
42332;SDS011;27984;51.476;5.702;2023-11-19T03:04:36;30.10;;;4.90;;
42332;SDS011;27984;51.476;5.702;2023-11-19T03:07:04;34.08;;;5.43;;
42332;SDS011;27984;51.476;5.702;2023-11-19T03:09:30;36.47;;;5.80;;
42332;SDS011;27984;51.476;5.702;2023-11-19T03:11:56;29.25;;;5.07;;
42332;SDS011;27984;51.476;5.702;2023-11-19T03:14:22;36.35;;;5.03;;
42332;SDS011;27984;51.476;5.702;2023-11-19T03:16:48;42.20;;;4.97;;
42332;SDS011;27984;51.476;5.702;2023-11-19T03:19:14;36.05;;;5.25;;
42332;SDS011;27984;51.476;5.702;2023-11-19T03:21:40;35.17;;;5.35;;
42332;SDS011;27984;51.476;5.702;2023-11-19T03:24:06;37.10;;;5.55;;
42332;SDS011;27984;51.476;5.702;2023-11-19T03:26:33;35.53;;;5.38;;
42332;SDS011;27984;51.476;5.702;2023-11-19T03:28:59;37.30;;;5.32;;
42332;SDS011;27984;51.476;5.702;2023-11-19T03:31:25;40.72;;;5.43;;
42332;SDS011;27984;51.476;5.702;2023-11-19T03:33:51;41.97;;;5.20;;
42332;SDS011;27984;51.476;5.702;2023-11-19T03:36:17;28.25;;;4.28;;
42332;SDS011;27984;51.476;5.702;2023-11-19T03:38:43;33.40;;;5.18;;
42332;SDS011;27984;51.476;5.702;2023-11-19T03:41:10;41.42;;;5.47;;
42332;SDS011;27984;51.476;5.702;2023-11-19T03:43:36;34.08;;;5.13;;
42332;SDS011;27984;51.476;5.702;2023-11-19T03:46:02;39.00;;;4.75;;
42332;SDS011;27984;51.476;5.702;2023-11-19T03:48:30;36.47;;;5.45;;
42332;SDS011;27984;51.476;5.702;2023-11-19T03:50:56;40.95;;;5.25;;
42332;SDS011;27984;51.476;5.702;2023-11-19T03:53:22;35.28;;;5.03;;
42332;SDS011;27984;51.476;5.702;2023-11-19T03:55:49;44.63;;;6.13;;
42332;SDS011;27984;51.476;5.702;2023-11-19T03:58:15;47.88;;;5.80;;
42332;SDS011;27984;51.476;5.702;2023-11-19T04:00:41;47.58;;;6.60;;
42332;SDS011;27984;51.476;5.702;2023-11-19T04:03:07;44.00;;;5.22;;
42332;SDS011;27984;51.476;5.702;2023-11-19T04:05:33;44.97;;;4.97;;
42332;SDS011;27984;51.476;5.702;2023-11-19T04:07:59;39.40;;;5.63;;
42332;SDS011;27984;51.476;5.702;2023-11-19T04:10:25;42.53;;;5.68;;
42332;SDS011;27984;51.476;5.702;2023-11-19T04:12:52;44.05;;;6.07;;
42332;SDS011;27984;51.476;5.702;2023-11-19T04:15:18;49.03;;;6.20;;
42332;SDS011;27984;51.476;5.702;2023-11-19T04:17:44;38.50;;;5.80;;
42332;SDS011;27984;51.476;5.702;2023-11-19T04:20:10;44.00;;;6.05;;
42332;SDS011;27984;51.476;5.702;2023-11-19T04:22:38;42.53;;;5.60;;
42332;SDS011;27984;51.476;5.702;2023-11-19T04:25:05;34.20;;;5.78;;
42332;SDS011;27984;51.476;5.702;2023-11-19T04:27:31;34.25;;;5.60;;
42332;SDS011;27984;51.476;5.702;2023-11-19T04:29:57;41.05;;;6.53;;
42332;SDS011;27984;51.476;5.702;2023-11-19T04:32:23;44.58;;;5.10;;
42332;SDS011;27984;51.476;5.702;2023-11-19T04:34:51;41.42;;;5.85;;
42332;SDS011;27984;51.476;5.702;2023-11-19T04:37:17;38.10;;;6.05;;
42332;SDS011;27984;51.476;5.702;2023-11-19T04:39:44;41.63;;;5.65;;
42332;SDS011;27984;51.476;5.702;2023-11-19T04:42:11;38.47;;;5.07;;
42332;SDS011;27984;51.476;5.702;2023-11-19T04:44:37;47.78;;;6.63;;
42332;SDS011;27984;51.476;5.702;2023-11-19T04:47:03;48.40;;;5.80;;
42332;SDS011;27984;51.476;5.702;2023-11-19T04:49:29;38.28;;;5.95;;
42332;SDS011;27984;51.476;5.702;2023-11-19T04:51:55;44.08;;;5.68;;
42332;SDS011;27984;51.476;5.702;2023-11-19T04:54:21;42.13;;;5.80;;
42332;SDS011;27984;51.476;5.702;2023-11-19T04:56:48;39.38;;;6.03;;
42332;SDS011;27984;51.476;5.702;2023-11-19T04:59:14;36.05;;;5.32;;
42332;SDS011;27984;51.476;5.702;2023-11-19T05:01:40;40.97;;;5.57;;
42332;SDS011;27984;51.476;5.702;2023-11-19T05:04:07;42.90;;;5.70;;
42332;SDS011;27984;51.476;5.702;2023-11-19T05:06:33;45.00;;;5.85;;
42332;SDS011;27984;51.476;5.702;2023-11-19T05:09:00;43.60;;;6.03;;
42332;SDS011;27984;51.476;5.702;2023-11-19T05:11:28;33.10;;;5.72;;
42332;SDS011;27984;51.476;5.702;2023-11-19T05:13:54;41.08;;;5.50;;
42332;SDS011;27984;51.476;5.702;2023-11-19T05:16:20;36.25;;;5.57;;
42332;SDS011;27984;51.476;5.702;2023-11-19T05:18:46;43.22;;;5.55;;
42332;SDS011;27984;51.476;5.702;2023-11-19T05:21:12;38.42;;;5.18;;
42332;SDS011;27984;51.476;5.702;2023-11-19T05:23:39;40.17;;;5.55;;
42332;SDS011;27984;51.476;5.702;2023-11-19T05:26:06;46.40;;;5.72;;
42332;SDS011;27984;51.476;5.702;2023-11-19T05:28:32;42.13;;;5.68;;
42332;SDS011;27984;51.476;5.702;2023-11-19T05:30:59;37.28;;;5.22;;
42332;SDS011;27984;51.476;5.702;2023-11-19T05:33:25;35.65;;;5.97;;
42332;SDS011;27984;51.476;5.702;2023-11-19T05:35:51;47.60;;;6.75;;
42332;SDS011;27984;51.476;5.702;2023-11-19T05:38:17;39.30;;;5.60;;
42332;SDS011;27984;51.476;5.702;2023-11-19T05:40:43;41.20;;;5.32;;
42332;SDS011;27984;51.476;5.702;2023-11-19T05:43:09;48.90;;;6.07;;
42332;SDS011;27984;51.476;5.702;2023-11-19T05:45:35;41.38;;;6.50;;
42332;SDS011;27984;51.476;5.702;2023-11-19T05:48:01;43.45;;;6.45;;
42332;SDS011;27984;51.476;5.702;2023-11-19T05:50:29;44.92;;;6.53;;
42332;SDS011;27984;51.476;5.702;2023-11-19T05:52:55;41.10;;;6.65;;
42332;SDS011;27984;51.476;5.702;2023-11-19T05:55:21;46.80;;;6.30;;
42332;SDS011;27984;51.476;5.702;2023-11-19T05:57:48;47.20;;;6.15;;
42332;SDS011;27984;51.476;5.702;2023-11-19T06:00:16;37.83;;;5.75;;
42332;SDS011;27984;51.476;5.702;2023-11-19T06:02:42;42.35;;;6.13;;
42332;SDS011;27984;51.476;5.702;2023-11-19T06:05:08;39.92;;;5.50;;
42332;SDS011;27984;51.476;5.702;2023-11-19T06:07:35;37.83;;;6.50;;
42332;SDS011;27984;51.476;5.702;2023-11-19T06:10:01;37.28;;;5.70;;
42332;SDS011;27984;51.476;5.702;2023-11-19T06:12:30;38.63;;;5.60;;
42332;SDS011;27984;51.476;5.702;2023-11-19T06:14:56;42.80;;;5.20;;
42332;SDS011;27984;51.476;5.702;2023-11-19T06:17:22;42.05;;;5.78;;
42332;SDS011;27984;51.476;5.702;2023-11-19T06:19:48;43.70;;;5.45;;
42332;SDS011;27984;51.476;5.702;2023-11-19T06:22:14;42.75;;;6.18;;
42332;SDS011;27984;51.476;5.702;2023-11-19T06:24:41;48.30;;;6.75;;
42332;SDS011;27984;51.476;5.702;2023-11-19T06:27:07;43.60;;;5.25;;
42332;SDS011;27984;51.476;5.702;2023-11-19T06:29:34;52.17;;;6.55;;
42332;SDS011;27984;51.476;5.702;2023-11-19T06:32:01;40.17;;;5.75;;
42332;SDS011;27984;51.476;5.702;2023-11-19T06:34:27;43.67;;;4.97;;
42332;SDS011;27984;51.476;5.702;2023-11-19T06:36:53;38.38;;;5.90;;
42332;SDS011;27984;51.476;5.702;2023-11-19T06:39:19;49.70;;;5.95;;
42332;SDS011;27984;51.476;5.702;2023-11-19T06:41:45;44.72;;;5.80;;
42332;SDS011;27984;51.476;5.702;2023-11-19T06:44:11;42.50;;;5.28;;
42332;SDS011;27984;51.476;5.702;2023-11-19T06:46:38;47.08;;;6.25;;
42332;SDS011;27984;51.476;5.702;2023-11-19T06:49:04;46.92;;;6.13;;
42332;SDS011;27984;51.476;5.702;2023-11-19T06:51:29;35.92;;;5.45;;
42332;SDS011;27984;51.476;5.702;2023-11-19T06:53:56;43.88;;;4.97;;
42332;SDS011;27984;51.476;5.702;2023-11-19T06:56:23;36.85;;;4.65;;
42332;SDS011;27984;51.476;5.702;2023-11-19T06:58:49;51.70;;;6.32;;
42332;SDS011;27984;51.476;5.702;2023-11-19T07:01:16;42.28;;;5.78;;
42332;SDS011;27984;51.476;5.702;2023-11-19T07:03:43;40.42;;;6.40;;
42332;SDS011;27984;51.476;5.702;2023-11-19T07:06:09;46.63;;;5.80;;
42332;SDS011;27984;51.476;5.702;2023-11-19T07:08:35;45.97;;;6.32;;
42332;SDS011;27984;51.476;5.702;2023-11-19T07:11:01;46.92;;;5.18;;
42332;SDS011;27984;51.476;5.702;2023-11-19T07:13:28;54.63;;;6.10;;
42332;SDS011;27984;51.476;5.702;2023-11-19T07:15:55;45.28;;;5.55;;
42332;SDS011;27984;51.476;5.702;2023-11-19T07:18:21;43.25;;;5.78;;
42332;SDS011;27984;51.476;5.702;2023-11-19T07:20:48;50.22;;;5.88;;
42332;SDS011;27984;51.476;5.702;2023-11-19T07:23:14;35.03;;;5.20;;
42332;SDS011;27984;51.476;5.702;2023-11-19T07:25:42;43.30;;;5.53;;
42332;SDS011;27984;51.476;5.702;2023-11-19T07:28:08;39.58;;;5.60;;
42332;SDS011;27984;51.476;5.702;2023-11-19T07:30:35;39.13;;;5.45;;
42332;SDS011;27984;51.476;5.702;2023-11-19T07:33:01;43.75;;;5.88;;
42332;SDS011;27984;51.476;5.702;2023-11-19T07:35:29;49.58;;;6.72;;
42332;SDS011;27984;51.476;5.702;2023-11-19T07:37:55;49.33;;;6.40;;
42332;SDS011;27984;51.476;5.702;2023-11-19T07:40:22;35.60;;;5.85;;
42332;SDS011;27984;51.476;5.702;2023-11-19T07:42:48;39.25;;;5.45;;
42332;SDS011;27984;51.476;5.702;2023-11-19T07:45:14;39.80;;;5.50;;
42332;SDS011;27984;51.476;5.702;2023-11-19T07:47:40;47.47;;;6.45;;
42332;SDS011;27984;51.476;5.702;2023-11-19T07:50:07;43.42;;;6.07;;
42332;SDS011;27984;51.476;5.702;2023-11-19T07:52:34;41.67;;;5.47;;
42332;SDS011;27984;51.476;5.702;2023-11-19T07:55:00;41.83;;;5.70;;
42332;SDS011;27984;51.476;5.702;2023-11-19T07:57:27;50.15;;;5.45;;
42332;SDS011;27984;51.476;5.702;2023-11-19T07:59:55;42.78;;;5.60;;
42332;SDS011;27984;51.476;5.702;2023-11-19T08:02:21;35.58;;;5.38;;
42332;SDS011;27984;51.476;5.702;2023-11-19T08:04:48;40.63;;;6.03;;
42332;SDS011;27984;51.476;5.702;2023-11-19T08:07:16;47.17;;;5.82;;
42332;SDS011;27984;51.476;5.702;2023-11-19T08:09:42;40.70;;;6.15;;
42332;SDS011;27984;51.476;5.702;2023-11-19T08:12:08;40.90;;;5.82;;
42332;SDS011;27984;51.476;5.702;2023-11-19T08:14:35;37.75;;;6.10;;
42332;SDS011;27984;51.476;5.702;2023-11-19T08:17:02;44.83;;;5.88;;
42332;SDS011;27984;51.476;5.702;2023-11-19T08:19:28;43.80;;;6.32;;
42332;SDS011;27984;51.476;5.702;2023-11-19T08:21:54;44.00;;;5.63;;
42332;SDS011;27984;51.476;5.702;2023-11-19T08:24:20;43.25;;;6.70;;
42332;SDS011;27984;51.476;5.702;2023-11-19T08:26:46;37.17;;;5.65;;
42332;SDS011;27984;51.476;5.702;2023-11-19T08:29:12;44.08;;;6.20;;
42332;SDS011;27984;51.476;5.702;2023-11-19T08:31:38;37.03;;;5.20;;
42332;SDS011;27984;51.476;5.702;2023-11-19T08:34:04;35.60;;;5.40;;
42332;SDS011;27984;51.476;5.702;2023-11-19T08:36:33;32.95;;;4.97;;
42332;SDS011;27984;51.476;5.702;2023-11-19T08:38:59;41.45;;;6.53;;
42332;SDS011;27984;51.476;5.702;2023-11-19T08:41:25;39.78;;;5.43;;
42332;SDS011;27984;51.476;5.702;2023-11-19T08:43:52;37.80;;;5.40;;
42332;SDS011;27984;51.476;5.702;2023-11-19T08:46:18;50.90;;;6.40;;
42332;SDS011;27984;51.476;5.702;2023-11-19T08:48:44;44.42;;;6.35;;
42332;SDS011;27984;51.476;5.702;2023-11-19T08:51:11;35.60;;;5.35;;
42332;SDS011;27984;51.476;5.702;2023-11-19T08:53:37;44.00;;;5.85;;
42332;SDS011;27984;51.476;5.702;2023-11-19T08:56:03;41.95;;;5.32;;
42332;SDS011;27984;51.476;5.702;2023-11-19T08:58:30;35.25;;;5.80;;
42332;SDS011;27984;51.476;5.702;2023-11-19T09:00:56;37.78;;;6.00;;
42332;SDS011;27984;51.476;5.702;2023-11-19T09:03:23;35.45;;;5.80;;
42332;SDS011;27984;51.476;5.702;2023-11-19T09:05:51;36.53;;;5.88;;
42332;SDS011;27984;51.476;5.702;2023-11-19T09:08:17;39.05;;;5.75;;
42332;SDS011;27984;51.476;5.702;2023-11-19T09:10:43;40.63;;;6.20;;
42332;SDS011;27984;51.476;5.702;2023-11-19T09:13:09;38.42;;;6.05;;
42332;SDS011;27984;51.476;5.702;2023-11-19T09:15:35;30.80;;;6.15;;
42332;SDS011;27984;51.476;5.702;2023-11-19T09:18:01;33.45;;;5.57;;
42332;SDS011;27984;51.476;5.702;2023-11-19T09:20:27;35.45;;;5.72;;
42332;SDS011;27984;51.476;5.702;2023-11-19T09:22:53;36.65;;;5.72;;
42332;SDS011;27984;51.476;5.702;2023-11-19T09:25:19;36.35;;;5.75;;
42332;SDS011;27984;51.476;5.702;2023-11-19T09:27:45;40.33;;;6.22;;
42332;SDS011;27984;51.476;5.702;2023-11-19T09:30:11;32.97;;;5.50;;
42332;SDS011;27984;51.476;5.702;2023-11-19T09:32:37;33.53;;;5.60;;
42332;SDS011;27984;51.476;5.702;2023-11-19T09:35:04;34.55;;;5.65;;
42332;SDS011;27984;51.476;5.702;2023-11-19T09:37:31;38.33;;;5.88;;
42332;SDS011;27984;51.476;5.702;2023-11-19T09:39:57;33.25;;;5.45;;
42332;SDS011;27984;51.476;5.702;2023-11-19T09:42:23;41.25;;;5.82;;
42332;SDS011;27984;51.476;5.702;2023-11-19T09:44:49;34.03;;;5.25;;
42332;SDS011;27984;51.476;5.702;2023-11-19T09:47:16;31.40;;;5.63;;
42332;SDS011;27984;51.476;5.702;2023-11-19T09:49:43;33.38;;;5.90;;
42332;SDS011;27984;51.476;5.702;2023-11-19T09:52:09;36.13;;;5.30;;
42332;SDS011;27984;51.476;5.702;2023-11-19T09:54:35;32.05;;;5.45;;
42332;SDS011;27984;51.476;5.702;2023-11-19T09:57:02;31.10;;;5.15;;
42332;SDS011;27984;51.476;5.702;2023-11-19T09:59:31;27.70;;;5.15;;
42332;SDS011;27984;51.476;5.702;2023-11-19T10:01:58;37.30;;;6.07;;
42332;SDS011;27984;51.476;5.702;2023-11-19T10:04:25;33.92;;;5.70;;
42332;SDS011;27984;51.476;5.702;2023-11-19T10:06:53;32.90;;;5.45;;
42332;SDS011;27984;51.476;5.702;2023-11-19T10:09:19;33.67;;;6.00;;
42332;SDS011;27984;51.476;5.702;2023-11-19T10:11:45;34.78;;;6.32;;
42332;SDS011;27984;51.476;5.702;2023-11-19T10:14:11;34.90;;;5.95;;
42332;SDS011;27984;51.476;5.702;2023-11-19T10:16:37;25.85;;;5.07;;
42332;SDS011;27984;51.476;5.702;2023-11-19T10:19:03;30.27;;;5.43;;
42332;SDS011;27984;51.476;5.702;2023-11-19T10:21:32;33.83;;;5.75;;
42332;SDS011;27984;51.476;5.702;2023-11-19T10:23:58;31.27;;;6.10;;
42332;SDS011;27984;51.476;5.702;2023-11-19T10:26:25;30.70;;;5.38;;
42332;SDS011;27984;51.476;5.702;2023-11-19T10:28:52;35.42;;;5.72;;
42332;SDS011;27984;51.476;5.702;2023-11-19T10:31:19;30.13;;;5.05;;
42332;SDS011;27984;51.476;5.702;2023-11-19T10:33:49;33.50;;;5.53;;
42332;SDS011;27984;51.476;5.702;2023-11-19T10:36:16;22.77;;;4.78;;
42332;SDS011;27984;51.476;5.702;2023-11-19T10:38:51;25.63;;;4.20;;
42332;SDS011;27984;51.476;5.702;2023-11-19T10:41:27;28.98;;;4.95;;
42332;SDS011;27984;51.476;5.702;2023-11-19T10:43:53;31.08;;;5.72;;
42332;SDS011;27984;51.476;5.702;2023-11-19T10:46:19;30.83;;;5.25;;
42332;SDS011;27984;51.476;5.702;2023-11-19T10:48:48;34.72;;;5.28;;
42332;SDS011;27984;51.476;5.702;2023-11-19T10:51:14;29.42;;;5.38;;
42332;SDS011;27984;51.476;5.702;2023-11-19T10:53:47;25.50;;;4.50;;
42332;SDS011;27984;51.476;5.702;2023-11-19T10:56:16;31.33;;;5.03;;
42332;SDS011;27984;51.476;5.702;2023-11-19T10:58:44;29.48;;;4.72;;
42332;SDS011;27984;51.476;5.702;2023-11-19T11:01:16;27.35;;;4.88;;
42332;SDS011;27984;51.476;5.702;2023-11-19T11:03:45;36.30;;;5.43;;
42332;SDS011;27984;51.476;5.702;2023-11-19T11:06:12;28.98;;;5.28;;
42332;SDS011;27984;51.476;5.702;2023-11-19T11:08:38;26.67;;;5.18;;
42332;SDS011;27984;51.476;5.702;2023-11-19T11:11:05;33.22;;;4.65;;
42332;SDS011;27984;51.476;5.702;2023-11-19T11:13:31;29.25;;;5.10;;
42332;SDS011;27984;51.476;5.702;2023-11-19T11:15:57;28.10;;;4.85;;
42332;SDS011;27984;51.476;5.702;2023-11-19T11:18:24;30.17;;;5.10;;
42332;SDS011;27984;51.476;5.702;2023-11-19T11:20:52;27.15;;;4.65;;
42332;SDS011;27984;51.476;5.702;2023-11-19T11:28:29;29.08;;;4.45;;
42332;SDS011;27984;51.476;5.702;2023-11-19T11:31:03;30.50;;;4.68;;
42332;SDS011;27984;51.476;5.702;2023-11-19T11:33:35;25.48;;;4.53;;
42332;SDS011;27984;51.476;5.702;2023-11-19T11:36:11;28.42;;;4.47;;
42332;SDS011;27984;51.476;5.702;2023-11-19T11:38:39;25.00;;;4.20;;
42332;SDS011;27984;51.476;5.702;2023-11-19T11:41:22;27.27;;;5.00;;
42332;SDS011;27984;51.476;5.702;2023-11-19T11:43:51;33.55;;;4.55;;
42332;SDS011;27984;51.476;5.702;2023-11-19T11:49:02;35.40;;;5.30;;
42332;SDS011;27984;51.476;5.702;2023-11-19T12:02:08;26.13;;;4.28;;
42332;SDS011;27984;51.476;5.702;2023-11-19T12:04:34;25.02;;;4.05;;
42332;SDS011;27984;51.476;5.702;2023-11-19T12:09:30;18.40;;;4.03;;
42332;SDS011;27984;51.476;5.702;2023-11-19T12:12:17;24.95;;;4.40;;
42332;SDS011;27984;51.476;5.702;2023-11-19T12:15:02;20.33;;;3.97;;
42332;SDS011;27984;51.476;5.702;2023-11-19T12:20:02;21.42;;;4.53;;
42332;SDS011;27984;51.476;5.702;2023-11-19T12:22:28;19.65;;;4.30;;
42332;SDS011;27984;51.476;5.702;2023-11-19T12:24:54;20.75;;;4.35;;
42332;SDS011;27984;51.476;5.702;2023-11-19T12:27:21;21.25;;;3.97;;
42332;SDS011;27984;51.476;5.702;2023-11-19T12:29:48;20.30;;;3.78;;
42332;SDS011;27984;51.476;5.702;2023-11-19T12:32:15;27.58;;;5.63;;
42332;SDS011;27984;51.476;5.702;2023-11-19T12:34:41;27.63;;;4.60;;
42332;SDS011;27984;51.476;5.702;2023-11-19T12:37:07;26.45;;;5.13;;
42332;SDS011;27984;51.476;5.702;2023-11-19T12:39:34;23.58;;;4.50;;
42332;SDS011;27984;51.476;5.702;2023-11-19T12:42:00;24.67;;;4.75;;
42332;SDS011;27984;51.476;5.702;2023-11-19T12:44:26;26.90;;;5.20;;
42332;SDS011;27984;51.476;5.702;2023-11-19T12:47:05;28.20;;;4.70;;
42332;SDS011;27984;51.476;5.702;2023-11-19T12:49:32;27.80;;;4.97;;
42332;SDS011;27984;51.476;5.702;2023-11-19T12:51:58;24.95;;;4.18;;
42332;SDS011;27984;51.476;5.702;2023-11-19T12:54:36;27.13;;;4.22;;
42332;SDS011;27984;51.476;5.702;2023-11-19T12:57:03;29.42;;;4.82;;
42332;SDS011;27984;51.476;5.702;2023-11-19T12:59:30;23.38;;;4.72;;
42332;SDS011;27984;51.476;5.702;2023-11-19T13:01:56;27.88;;;4.95;;
42332;SDS011;27984;51.476;5.702;2023-11-19T13:04:22;21.73;;;4.32;;
42332;SDS011;27984;51.476;5.702;2023-11-19T13:06:52;26.90;;;4.45;;
42332;SDS011;27984;51.476;5.702;2023-11-19T13:09:21;25.10;;;3.85;;
42332;SDS011;27984;51.476;5.702;2023-11-19T13:11:48;25.00;;;4.78;;
42332;SDS011;27984;51.476;5.702;2023-11-19T13:14:14;31.42;;;4.40;;
42332;SDS011;27984;51.476;5.702;2023-11-19T13:16:40;23.35;;;3.80;;
42332;SDS011;27984;51.476;5.702;2023-11-19T13:19:07;32.83;;;4.68;;
42332;SDS011;27984;51.476;5.702;2023-11-19T13:21:36;23.95;;;4.32;;
42332;SDS011;27984;51.476;5.702;2023-11-19T13:24:03;24.98;;;3.78;;
42332;SDS011;27984;51.476;5.702;2023-11-19T13:26:29;28.55;;;4.70;;
42332;SDS011;27984;51.476;5.702;2023-11-19T13:28:55;30.38;;;4.30;;
42332;SDS011;27984;51.476;5.702;2023-11-19T13:31:21;26.92;;;4.57;;
42332;SDS011;27984;51.476;5.702;2023-11-19T13:33:47;41.38;;;5.28;;
42332;SDS011;27984;51.476;5.702;2023-11-19T13:36:13;31.15;;;5.90;;
42332;SDS011;27984;51.476;5.702;2023-11-19T13:38:39;28.33;;;5.72;;
42332;SDS011;27984;51.476;5.702;2023-11-19T13:41:09;28.38;;;4.60;;
42332;SDS011;27984;51.476;5.702;2023-11-19T13:43:36;26.42;;;4.88;;
42332;SDS011;27984;51.476;5.702;2023-11-19T13:46:02;26.20;;;4.55;;
42332;SDS011;27984;51.476;5.702;2023-11-19T13:48:29;30.02;;;5.15;;
42332;SDS011;27984;51.476;5.702;2023-11-19T13:50:55;27.58;;;4.88;;
42332;SDS011;27984;51.476;5.702;2023-11-19T13:53:21;23.27;;;4.47;;
42332;SDS011;27984;51.476;5.702;2023-11-19T13:55:48;32.97;;;4.75;;
42332;SDS011;27984;51.476;5.702;2023-11-19T13:58:15;30.60;;;5.30;;
42332;SDS011;27984;51.476;5.702;2023-11-19T14:00:41;24.00;;;4.47;;
42332;SDS011;27984;51.476;5.702;2023-11-19T14:03:08;30.90;;;5.47;;
42332;SDS011;27984;51.476;5.702;2023-11-19T14:05:36;29.23;;;4.47;;
42332;SDS011;27984;51.476;5.702;2023-11-19T14:08:02;24.27;;;4.50;;
42332;SDS011;27984;51.476;5.702;2023-11-19T14:10:28;30.45;;;4.43;;
42332;SDS011;27984;51.476;5.702;2023-11-19T14:12:54;30.13;;;5.00;;
42332;SDS011;27984;51.476;5.702;2023-11-19T14:15:20;28.63;;;4.82;;
42332;SDS011;27984;51.476;5.702;2023-11-19T14:17:46;22.02;;;4.00;;
42332;SDS011;27984;51.476;5.702;2023-11-19T14:20:12;23.13;;;4.00;;
42332;SDS011;27984;51.476;5.702;2023-11-19T14:22:39;27.77;;;4.25;;
42332;SDS011;27984;51.476;5.702;2023-11-19T14:25:05;25.40;;;4.63;;
42332;SDS011;27984;51.476;5.702;2023-11-19T14:27:34;25.35;;;4.20;;
42332;SDS011;27984;51.476;5.702;2023-11-19T14:30:01;23.98;;;4.68;;
42332;SDS011;27984;51.476;5.702;2023-11-19T14:32:27;28.35;;;4.72;;
42332;SDS011;27984;51.476;5.702;2023-11-19T14:34:53;24.63;;;4.07;;
42332;SDS011;27984;51.476;5.702;2023-11-19T14:37:20;19.95;;;3.42;;
42332;SDS011;27984;51.476;5.702;2023-11-19T14:39:46;25.27;;;3.65;;
42332;SDS011;27984;51.476;5.702;2023-11-19T14:42:12;23.90;;;4.38;;
42332;SDS011;27984;51.476;5.702;2023-11-19T14:44:39;26.70;;;4.50;;
42332;SDS011;27984;51.476;5.702;2023-11-19T14:47:05;25.05;;;4.40;;
42332;SDS011;27984;51.476;5.702;2023-11-19T14:49:31;26.20;;;4.60;;
42332;SDS011;27984;51.476;5.702;2023-11-19T14:51:57;25.10;;;4.20;;
42332;SDS011;27984;51.476;5.702;2023-11-19T14:54:23;27.38;;;4.53;;
42332;SDS011;27984;51.476;5.702;2023-11-19T14:56:49;22.77;;;4.68;;